sensor_id;sensor_type;location;lat;lon;timestamp;P1;durP1;ratioP1;P2;durP2;ratioP2
20844;SDS011;10583;49.084;8.646;2023-02-18T00:01:21;2.37;;;2.37;;
20844;SDS011;10583;49.084;8.646;2023-02-18T00:03:49;1.93;;;1.93;;
20844;SDS011;10583;49.084;8.646;2023-02-18T00:06:16;3.40;;;3.40;;
20844;SDS011;10583;49.084;8.646;2023-02-18T00:08:44;2.00;;;2.00;;
20844;SDS011;10583;49.084;8.646;2023-02-18T00:11:13;2.57;;;2.57;;
20844;SDS011;10583;49.084;8.646;2023-02-18T00:13:41;5.57;;;5.57;;
20844;SDS011;10583;49.084;8.646;2023-02-18T00:16:08;1.57;;;1.57;;
20844;SDS011;10583;49.084;8.646;2023-02-18T00:18:37;2.07;;;2.07;;
20844;SDS011;10583;49.084;8.646;2023-02-18T00:21:04;2.70;;;2.70;;
20844;SDS011;10583;49.084;8.646;2023-02-18T00:23:32;5.00;;;5.00;;
20844;SDS011;10583;49.084;8.646;2023-02-18T00:25:59;2.07;;;2.07;;
20844;SDS011;10583;49.084;8.646;2023-02-18T00:28:28;3.40;;;3.40;;
20844;SDS011;10583;49.084;8.646;2023-02-18T00:30:55;1.70;;;1.70;;
20844;SDS011;10583;49.084;8.646;2023-02-18T00:33:22;2.43;;;2.43;;
20844;SDS011;10583;49.084;8.646;2023-02-18T00:35:49;2.30;;;2.30;;
20844;SDS011;10583;49.084;8.646;2023-02-18T00:38:16;5.33;;;5.33;;
20844;SDS011;10583;49.084;8.646;2023-02-18T00:40:42;2.77;;;2.77;;
20844;SDS011;10583;49.084;8.646;2023-02-18T00:43:09;2.60;;;2.60;;
20844;SDS011;10583;49.084;8.646;2023-02-18T00:45:37;1.40;;;1.40;;
20844;SDS011;10583;49.084;8.646;2023-02-18T00:48:04;2.30;;;2.30;;
20844;SDS011;10583;49.084;8.646;2023-02-18T00:50:31;7.37;;;7.37;;
20844;SDS011;10583;49.084;8.646;2023-02-18T00:52:57;7.57;;;7.57;;
20844;SDS011;10583;49.084;8.646;2023-02-18T00:55:24;2.77;;;2.77;;
20844;SDS011;10583;49.084;8.646;2023-02-18T00:57:51;1.83;;;1.83;;
20844;SDS011;10583;49.084;8.646;2023-02-18T01:00:18;2.70;;;2.70;;
20844;SDS011;10583;49.084;8.646;2023-02-18T01:02:46;2.37;;;2.37;;
20844;SDS011;10583;49.084;8.646;2023-02-18T01:05:12;4.00;;;4.00;;
20844;SDS011;10583;49.084;8.646;2023-02-18T01:07:39;3.67;;;3.67;;
20844;SDS011;10583;49.084;8.646;2023-02-18T01:10:06;6.70;;;6.70;;
20844;SDS011;10583;49.084;8.646;2023-02-18T01:12:33;4.20;;;4.20;;
20844;SDS011;10583;49.084;8.646;2023-02-18T01:15:00;4.90;;;4.90;;
20844;SDS011;10583;49.084;8.646;2023-02-18T01:17:27;2.10;;;2.10;;
20844;SDS011;10583;49.084;8.646;2023-02-18T01:19:55;5.60;;;5.60;;
20844;SDS011;10583;49.084;8.646;2023-02-18T01:22:21;6.37;;;6.37;;
20844;SDS011;10583;49.084;8.646;2023-02-18T01:24:48;3.30;;;3.30;;
20844;SDS011;10583;49.084;8.646;2023-02-18T01:27:15;2.10;;;2.10;;
20844;SDS011;10583;49.084;8.646;2023-02-18T01:29:42;1.73;;;1.73;;
20844;SDS011;10583;49.084;8.646;2023-02-18T01:32:08;2.10;;;2.10;;
20844;SDS011;10583;49.084;8.646;2023-02-18T01:34:36;1.77;;;1.77;;
20844;SDS011;10583;49.084;8.646;2023-02-18T01:37:04;1.60;;;1.60;;
20844;SDS011;10583;49.084;8.646;2023-02-18T01:39:30;1.90;;;1.90;;
20844;SDS011;10583;49.084;8.646;2023-02-18T01:41:57;1.80;;;1.80;;
20844;SDS011;10583;49.084;8.646;2023-02-18T01:44:24;1.70;;;1.70;;
20844;SDS011;10583;49.084;8.646;2023-02-18T01:46:52;2.00;;;2.00;;
20844;SDS011;10583;49.084;8.646;2023-02-18T01:49:22;1.90;;;1.90;;
20844;SDS011;10583;49.084;8.646;2023-02-18T01:51:52;2.17;;;2.17;;
20844;SDS011;10583;49.084;8.646;2023-02-18T01:54:24;1.80;;;1.80;;
20844;SDS011;10583;49.084;8.646;2023-02-18T01:56:55;1.97;;;1.97;;
20844;SDS011;10583;49.084;8.646;2023-02-18T01:59:25;2.27;;;2.27;;
20844;SDS011;10583;49.084;8.646;2023-02-18T02:01:56;2.23;;;2.23;;
20844;SDS011;10583;49.084;8.646;2023-02-18T02:04:24;2.10;;;2.10;;
20844;SDS011;10583;49.084;8.646;2023-02-18T02:06:50;1.80;;;1.80;;
20844;SDS011;10583;49.084;8.646;2023-02-18T02:09:17;1.90;;;1.90;;
20844;SDS011;10583;49.084;8.646;2023-02-18T02:11:52;2.57;;;2.57;;
20844;SDS011;10583;49.084;8.646;2023-02-18T02:14:40;2.20;;;2.20;;
20844;SDS011;10583;49.084;8.646;2023-02-18T02:17:21;2.50;;;2.50;;
20844;SDS011;10583;49.084;8.646;2023-02-18T02:20:15;2.57;;;2.57;;
20844;SDS011;10583;49.084;8.646;2023-02-18T02:23:01;2.70;;;2.70;;
20844;SDS011;10583;49.084;8.646;2023-02-18T02:29:03;2.83;;;2.83;;
20844;SDS011;10583;49.084;8.646;2023-02-18T02:31:51;3.50;;;3.50;;
20844;SDS011;10583;49.084;8.646;2023-02-18T02:34:41;3.43;;;3.43;;
20844;SDS011;10583;49.084;8.646;2023-02-18T02:37:13;3.43;;;3.43;;
20844;SDS011;10583;49.084;8.646;2023-02-18T02:39:51;3.20;;;3.20;;
20844;SDS011;10583;49.084;8.646;2023-02-18T02:42:28;4.00;;;4.00;;
20844;SDS011;10583;49.084;8.646;2023-02-18T02:45:06;3.63;;;3.63;;
20844;SDS011;10583;49.084;8.646;2023-02-18T02:47:42;3.90;;;3.90;;
20844;SDS011;10583;49.084;8.646;2023-02-18T02:50:16;3.50;;;3.50;;
20844;SDS011;10583;49.084;8.646;2023-02-18T02:52:49;3.87;;;3.87;;
20844;SDS011;10583;49.084;8.646;2023-02-18T02:55:18;3.40;;;3.40;;
20844;SDS011;10583;49.084;8.646;2023-02-18T02:57:47;3.47;;;3.47;;
20844;SDS011;10583;49.084;8.646;2023-02-18T03:00:16;3.47;;;3.47;;
20844;SDS011;10583;49.084;8.646;2023-02-18T03:02:55;3.77;;;3.77;;
20844;SDS011;10583;49.084;8.646;2023-02-18T03:05:34;3.70;;;3.70;;
20844;SDS011;10583;49.084;8.646;2023-02-18T03:08:08;3.60;;;3.60;;
20844;SDS011;10583;49.084;8.646;2023-02-18T03:10:45;3.90;;;3.90;;
20844;SDS011;10583;49.084;8.646;2023-02-18T03:13:16;3.60;;;3.60;;
20844;SDS011;10583;49.084;8.646;2023-02-18T03:15:53;3.90;;;3.90;;
20844;SDS011;10583;49.084;8.646;2023-02-18T03:18:23;4.30;;;4.30;;
20844;SDS011;10583;49.084;8.646;2023-02-18T03:20:56;3.70;;;3.70;;
20844;SDS011;10583;49.084;8.646;2023-02-18T03:23:31;3.50;;;3.50;;
20844;SDS011;10583;49.084;8.646;2023-02-18T03:26:02;3.50;;;3.50;;
20844;SDS011;10583;49.084;8.646;2023-02-18T03:28:31;3.87;;;3.87;;
20844;SDS011;10583;49.084;8.646;2023-02-18T03:30:59;3.33;;;3.33;;
20844;SDS011;10583;49.084;8.646;2023-02-18T03:33:31;3.40;;;3.40;;
20844;SDS011;10583;49.084;8.646;2023-02-18T03:36:03;3.50;;;3.50;;
20844;SDS011;10583;49.084;8.646;2023-02-18T03:38:32;3.90;;;3.90;;
20844;SDS011;10583;49.084;8.646;2023-02-18T03:41:01;3.43;;;3.43;;
20844;SDS011;10583;49.084;8.646;2023-02-18T03:43:29;3.90;;;3.90;;
20844;SDS011;10583;49.084;8.646;2023-02-18T03:45:56;3.57;;;3.57;;
20844;SDS011;10583;49.084;8.646;2023-02-18T03:48:23;3.97;;;3.97;;
20844;SDS011;10583;49.084;8.646;2023-02-18T03:50:50;3.80;;;3.80;;
20844;SDS011;10583;49.084;8.646;2023-02-18T03:53:18;4.00;;;4.00;;
20844;SDS011;10583;49.084;8.646;2023-02-18T03:55:45;3.27;;;3.27;;
20844;SDS011;10583;49.084;8.646;2023-02-18T03:58:11;3.67;;;3.67;;
20844;SDS011;10583;49.084;8.646;2023-02-18T04:00:38;3.83;;;3.83;;
20844;SDS011;10583;49.084;8.646;2023-02-18T04:03:05;3.63;;;3.63;;
20844;SDS011;10583;49.084;8.646;2023-02-18T04:05:31;3.40;;;3.40;;
20844;SDS011;10583;49.084;8.646;2023-02-18T04:07:58;3.50;;;3.50;;
20844;SDS011;10583;49.084;8.646;2023-02-18T04:10:26;3.57;;;3.57;;
20844;SDS011;10583;49.084;8.646;2023-02-18T04:12:53;3.13;;;3.13;;
20844;SDS011;10583;49.084;8.646;2023-02-18T04:15:19;3.57;;;3.57;;
20844;SDS011;10583;49.084;8.646;2023-02-18T04:17:46;3.23;;;3.23;;
20844;SDS011;10583;49.084;8.646;2023-02-18T04:20:13;3.60;;;3.60;;
20844;SDS011;10583;49.084;8.646;2023-02-18T04:22:40;3.20;;;3.20;;
20844;SDS011;10583;49.084;8.646;2023-02-18T04:25:07;3.60;;;3.60;;
20844;SDS011;10583;49.084;8.646;2023-02-18T04:27:35;3.43;;;3.43;;
20844;SDS011;10583;49.084;8.646;2023-02-18T04:30:02;3.30;;;3.30;;
20844;SDS011;10583;49.084;8.646;2023-02-18T04:32:29;3.10;;;3.10;;
20844;SDS011;10583;49.084;8.646;2023-02-18T04:34:55;3.23;;;3.23;;
20844;SDS011;10583;49.084;8.646;2023-02-18T04:37:22;3.03;;;3.03;;
20844;SDS011;10583;49.084;8.646;2023-02-18T04:39:49;3.10;;;3.10;;
20844;SDS011;10583;49.084;8.646;2023-02-18T04:42:15;3.07;;;3.07;;
20844;SDS011;10583;49.084;8.646;2023-02-18T04:44:43;2.87;;;2.87;;
20844;SDS011;10583;49.084;8.646;2023-02-18T04:47:10;3.03;;;3.03;;
20844;SDS011;10583;49.084;8.646;2023-02-18T04:49:37;2.97;;;2.97;;
20844;SDS011;10583;49.084;8.646;2023-02-18T04:52:04;3.03;;;3.03;;
20844;SDS011;10583;49.084;8.646;2023-02-18T04:54:31;3.17;;;3.17;;
20844;SDS011;10583;49.084;8.646;2023-02-18T04:56:57;2.90;;;2.90;;
20844;SDS011;10583;49.084;8.646;2023-02-18T04:59:24;2.77;;;2.77;;
20844;SDS011;10583;49.084;8.646;2023-02-18T05:01:52;3.00;;;3.00;;
20844;SDS011;10583;49.084;8.646;2023-02-18T05:04:19;3.03;;;3.03;;
20844;SDS011;10583;49.084;8.646;2023-02-18T05:06:45;3.00;;;3.00;;
20844;SDS011;10583;49.084;8.646;2023-02-18T05:09:12;3.47;;;3.47;;
20844;SDS011;10583;49.084;8.646;2023-02-18T05:11:40;2.80;;;2.80;;
20844;SDS011;10583;49.084;8.646;2023-02-18T05:14:07;3.03;;;3.03;;
20844;SDS011;10583;49.084;8.646;2023-02-18T05:16:34;2.80;;;2.80;;
20844;SDS011;10583;49.084;8.646;2023-02-18T05:19:02;2.90;;;2.90;;
20844;SDS011;10583;49.084;8.646;2023-02-18T05:21:29;3.30;;;3.30;;
20844;SDS011;10583;49.084;8.646;2023-02-18T05:23:56;2.80;;;2.80;;
20844;SDS011;10583;49.084;8.646;2023-02-18T05:26:22;3.07;;;3.07;;
20844;SDS011;10583;49.084;8.646;2023-02-18T05:28:49;2.80;;;2.80;;
20844;SDS011;10583;49.084;8.646;2023-02-18T05:31:16;2.80;;;2.80;;
20844;SDS011;10583;49.084;8.646;2023-02-18T05:33:42;3.10;;;3.10;;
20844;SDS011;10583;49.084;8.646;2023-02-18T05:36:10;2.57;;;2.57;;
20844;SDS011;10583;49.084;8.646;2023-02-18T05:38:37;2.70;;;2.70;;
20844;SDS011;10583;49.084;8.646;2023-02-18T05:41:04;2.67;;;2.67;;
20844;SDS011;10583;49.084;8.646;2023-02-18T05:43:30;3.00;;;3.00;;
20844;SDS011;10583;49.084;8.646;2023-02-18T05:46:18;3.20;;;3.20;;
20844;SDS011;10583;49.084;8.646;2023-02-18T05:48:45;2.80;;;2.80;;
20844;SDS011;10583;49.084;8.646;2023-02-18T05:51:13;2.70;;;2.70;;
20844;SDS011;10583;49.084;8.646;2023-02-18T05:53:40;2.77;;;2.77;;
20844;SDS011;10583;49.084;8.646;2023-02-18T05:56:07;2.90;;;2.90;;
20844;SDS011;10583;49.084;8.646;2023-02-18T05:58:33;2.53;;;2.53;;
20844;SDS011;10583;49.084;8.646;2023-02-18T06:01:00;3.00;;;3.00;;
20844;SDS011;10583;49.084;8.646;2023-02-18T06:03:27;2.70;;;2.70;;
20844;SDS011;10583;49.084;8.646;2023-02-18T06:05:54;2.90;;;2.90;;
20844;SDS011;10583;49.084;8.646;2023-02-18T06:08:22;2.73;;;2.73;;
20844;SDS011;10583;49.084;8.646;2023-02-18T06:10:48;3.20;;;3.20;;
20844;SDS011;10583;49.084;8.646;2023-02-18T06:13:15;3.17;;;3.17;;
20844;SDS011;10583;49.084;8.646;2023-02-18T06:15:42;2.43;;;2.43;;
20844;SDS011;10583;49.084;8.646;2023-02-18T06:18:09;2.67;;;2.67;;
20844;SDS011;10583;49.084;8.646;2023-02-18T06:20:37;2.50;;;2.50;;
20844;SDS011;10583;49.084;8.646;2023-02-18T06:23:04;2.97;;;2.97;;
20844;SDS011;10583;49.084;8.646;2023-02-18T06:25:32;3.17;;;3.17;;
20844;SDS011;10583;49.084;8.646;2023-02-18T06:27:59;2.70;;;2.70;;
20844;SDS011;10583;49.084;8.646;2023-02-18T06:30:25;2.93;;;2.93;;
20844;SDS011;10583;49.084;8.646;2023-02-18T06:32:52;2.90;;;2.90;;
20844;SDS011;10583;49.084;8.646;2023-02-18T06:35:19;3.07;;;3.07;;
20844;SDS011;10583;49.084;8.646;2023-02-18T06:37:45;2.83;;;2.83;;
20844;SDS011;10583;49.084;8.646;2023-02-18T06:40:12;3.30;;;3.30;;
20844;SDS011;10583;49.084;8.646;2023-02-18T06:42:40;3.00;;;3.00;;
20844;SDS011;10583;49.084;8.646;2023-02-18T06:45:07;4.47;;;4.47;;
20844;SDS011;10583;49.084;8.646;2023-02-18T06:47:34;3.40;;;3.40;;
20844;SDS011;10583;49.084;8.646;2023-02-18T06:50:01;3.07;;;3.07;;
20844;SDS011;10583;49.084;8.646;2023-02-18T06:52:28;3.60;;;3.60;;
20844;SDS011;10583;49.084;8.646;2023-02-18T06:54:57;4.00;;;4.00;;
20844;SDS011;10583;49.084;8.646;2023-02-18T06:57:24;3.50;;;3.50;;
20844;SDS011;10583;49.084;8.646;2023-02-18T06:59:52;2.97;;;2.97;;
20844;SDS011;10583;49.084;8.646;2023-02-18T07:02:18;4.50;;;4.50;;
20844;SDS011;10583;49.084;8.646;2023-02-18T07:04:45;2.77;;;2.77;;
20844;SDS011;10583;49.084;8.646;2023-02-18T07:07:12;2.90;;;2.90;;
20844;SDS011;10583;49.084;8.646;2023-02-18T07:09:39;2.57;;;2.57;;
20844;SDS011;10583;49.084;8.646;2023-02-18T07:12:06;2.63;;;2.63;;
20844;SDS011;10583;49.084;8.646;2023-02-18T07:14:32;2.87;;;2.87;;
20844;SDS011;10583;49.084;8.646;2023-02-18T07:17:00;2.47;;;2.47;;
20844;SDS011;10583;49.084;8.646;2023-02-18T07:19:27;2.70;;;2.70;;
20844;SDS011;10583;49.084;8.646;2023-02-18T07:21:54;2.40;;;2.40;;
20844;SDS011;10583;49.084;8.646;2023-02-18T07:24:21;2.80;;;2.80;;
20844;SDS011;10583;49.084;8.646;2023-02-18T07:26:48;2.23;;;2.23;;
20844;SDS011;10583;49.084;8.646;2023-02-18T07:29:15;2.30;;;2.30;;
20844;SDS011;10583;49.084;8.646;2023-02-18T07:31:41;2.80;;;2.80;;
20844;SDS011;10583;49.084;8.646;2023-02-18T07:34:09;2.50;;;2.50;;
20844;SDS011;10583;49.084;8.646;2023-02-18T07:36:36;2.20;;;2.20;;
20844;SDS011;10583;49.084;8.646;2023-02-18T07:39:03;2.30;;;2.30;;
20844;SDS011;10583;49.084;8.646;2023-02-18T07:41:30;2.13;;;2.13;;
20844;SDS011;10583;49.084;8.646;2023-02-18T07:43:57;1.97;;;1.97;;
20844;SDS011;10583;49.084;8.646;2023-02-18T07:46:23;1.90;;;1.90;;
20844;SDS011;10583;49.084;8.646;2023-02-18T07:48:50;2.10;;;2.10;;
20844;SDS011;10583;49.084;8.646;2023-02-18T07:51:18;2.00;;;2.00;;
20844;SDS011;10583;49.084;8.646;2023-02-18T07:53:45;2.10;;;2.10;;
20844;SDS011;10583;49.084;8.646;2023-02-18T07:56:12;2.40;;;2.40;;
20844;SDS011;10583;49.084;8.646;2023-02-18T07:58:38;2.20;;;2.20;;
20844;SDS011;10583;49.084;8.646;2023-02-18T08:01:06;2.30;;;2.30;;
20844;SDS011;10583;49.084;8.646;2023-02-18T08:03:33;2.40;;;2.40;;
20844;SDS011;10583;49.084;8.646;2023-02-18T08:06:01;2.23;;;2.23;;
20844;SDS011;10583;49.084;8.646;2023-02-18T08:08:30;2.37;;;2.37;;
20844;SDS011;10583;49.084;8.646;2023-02-18T08:10:59;1.87;;;1.87;;
20844;SDS011;10583;49.084;8.646;2023-02-18T08:13:27;2.00;;;2.00;;
20844;SDS011;10583;49.084;8.646;2023-02-18T08:15:55;2.10;;;2.10;;
20844;SDS011;10583;49.084;8.646;2023-02-18T08:18:23;2.23;;;2.23;;
20844;SDS011;10583;49.084;8.646;2023-02-18T08:20:51;1.90;;;1.90;;
20844;SDS011;10583;49.084;8.646;2023-02-18T08:23:19;2.03;;;2.03;;
20844;SDS011;10583;49.084;8.646;2023-02-18T08:25:49;2.23;;;2.23;;
20844;SDS011;10583;49.084;8.646;2023-02-18T08:28:16;2.40;;;2.40;;
20844;SDS011;10583;49.084;8.646;2023-02-18T08:30:44;2.00;;;2.00;;
20844;SDS011;10583;49.084;8.646;2023-02-18T08:33:10;2.13;;;2.13;;
20844;SDS011;10583;49.084;8.646;2023-02-18T08:35:37;2.13;;;2.13;;
20844;SDS011;10583;49.084;8.646;2023-02-18T08:38:04;1.90;;;1.90;;
20844;SDS011;10583;49.084;8.646;2023-02-18T08:40:31;2.20;;;2.20;;
20844;SDS011;10583;49.084;8.646;2023-02-18T08:42:59;2.00;;;2.00;;
20844;SDS011;10583;49.084;8.646;2023-02-18T08:45:25;1.90;;;1.90;;
20844;SDS011;10583;49.084;8.646;2023-02-18T08:47:52;1.90;;;1.90;;
20844;SDS011;10583;49.084;8.646;2023-02-18T08:50:19;2.20;;;2.20;;
20844;SDS011;10583;49.084;8.646;2023-02-18T08:52:50;1.90;;;1.90;;
20844;SDS011;10583;49.084;8.646;2023-02-18T08:55:16;1.70;;;1.70;;
20844;SDS011;10583;49.084;8.646;2023-02-18T08:57:45;2.00;;;2.00;;
20844;SDS011;10583;49.084;8.646;2023-02-18T09:00:14;2.23;;;2.23;;
20844;SDS011;10583;49.084;8.646;2023-02-18T09:02:42;2.17;;;2.17;;
20844;SDS011;10583;49.084;8.646;2023-02-18T09:05:09;1.80;;;1.80;;
20844;SDS011;10583;49.084;8.646;2023-02-18T09:07:36;1.60;;;1.60;;
20844;SDS011;10583;49.084;8.646;2023-02-18T09:10:03;1.73;;;1.73;;
20844;SDS011;10583;49.084;8.646;2023-02-18T09:12:31;1.60;;;1.60;;
20844;SDS011;10583;49.084;8.646;2023-02-18T09:14:58;1.70;;;1.70;;
20844;SDS011;10583;49.084;8.646;2023-02-18T09:17:27;1.70;;;1.70;;
20844;SDS011;10583;49.084;8.646;2023-02-18T09:19:54;1.53;;;1.53;;
20844;SDS011;10583;49.084;8.646;2023-02-18T09:22:20;1.83;;;1.83;;
20844;SDS011;10583;49.084;8.646;2023-02-18T09:24:47;1.70;;;1.70;;
20844;SDS011;10583;49.084;8.646;2023-02-18T09:27:14;1.60;;;1.60;;
20844;SDS011;10583;49.084;8.646;2023-02-18T09:29:40;1.50;;;1.50;;
20844;SDS011;10583;49.084;8.646;2023-02-18T09:32:08;1.40;;;1.40;;
20844;SDS011;10583;49.084;8.646;2023-02-18T09:34:37;1.67;;;1.67;;
20844;SDS011;10583;49.084;8.646;2023-02-18T09:37:04;1.40;;;1.40;;
20844;SDS011;10583;49.084;8.646;2023-02-18T09:39:30;1.80;;;1.80;;
20844;SDS011;10583;49.084;8.646;2023-02-18T09:41:58;1.80;;;1.80;;
20844;SDS011;10583;49.084;8.646;2023-02-18T09:44:28;1.70;;;1.70;;
20844;SDS011;10583;49.084;8.646;2023-02-18T09:46:59;1.80;;;1.80;;
20844;SDS011;10583;49.084;8.646;2023-02-18T09:49:32;1.60;;;1.60;;
20844;SDS011;10583;49.084;8.646;2023-02-18T09:52:04;1.90;;;1.90;;
20844;SDS011;10583;49.084;8.646;2023-02-18T09:54:35;1.80;;;1.80;;
20844;SDS011;10583;49.084;8.646;2023-02-18T09:57:02;1.70;;;1.70;;
20844;SDS011;10583;49.084;8.646;2023-02-18T09:59:31;1.47;;;1.47;;
20844;SDS011;10583;49.084;8.646;2023-02-18T10:01:58;1.60;;;1.60;;
20844;SDS011;10583;49.084;8.646;2023-02-18T10:04:27;1.77;;;1.77;;
20844;SDS011;10583;49.084;8.646;2023-02-18T10:07:00;2.10;;;2.10;;
20844;SDS011;10583;49.084;8.646;2023-02-18T10:09:31;1.73;;;1.73;;
20844;SDS011;10583;49.084;8.646;2023-02-18T10:12:03;1.97;;;1.97;;
20844;SDS011;10583;49.084;8.646;2023-02-18T10:14:38;2.10;;;2.10;;
20844;SDS011;10583;49.084;8.646;2023-02-18T10:17:05;1.73;;;1.73;;
20844;SDS011;10583;49.084;8.646;2023-02-18T10:19:33;1.90;;;1.90;;
20844;SDS011;10583;49.084;8.646;2023-02-18T10:22:07;2.10;;;2.10;;
20844;SDS011;10583;49.084;8.646;2023-02-18T10:24:36;1.80;;;1.80;;
20844;SDS011;10583;49.084;8.646;2023-02-18T10:27:06;1.77;;;1.77;;
20844;SDS011;10583;49.084;8.646;2023-02-18T10:29:34;1.80;;;1.80;;
20844;SDS011;10583;49.084;8.646;2023-02-18T10:32:03;1.70;;;1.70;;
20844;SDS011;10583;49.084;8.646;2023-02-18T10:34:38;1.63;;;1.63;;
20844;SDS011;10583;49.084;8.646;2023-02-18T10:37:10;1.80;;;1.80;;
20844;SDS011;10583;49.084;8.646;2023-02-18T10:39:54;1.90;;;1.90;;
20844;SDS011;10583;49.084;8.646;2023-02-18T10:42:31;1.70;;;1.70;;
20844;SDS011;10583;49.084;8.646;2023-02-18T10:45:08;1.80;;;1.80;;
20844;SDS011;10583;49.084;8.646;2023-02-18T10:47:47;1.90;;;1.90;;
20844;SDS011;10583;49.084;8.646;2023-02-18T10:50:24;1.87;;;1.87;;
20844;SDS011;10583;49.084;8.646;2023-02-18T10:52:56;1.90;;;1.90;;
20844;SDS011;10583;49.084;8.646;2023-02-18T10:55:34;1.80;;;1.80;;
20844;SDS011;10583;49.084;8.646;2023-02-18T10:58:03;1.67;;;1.67;;
20844;SDS011;10583;49.084;8.646;2023-02-18T11:00:48;2.07;;;2.07;;
20844;SDS011;10583;49.084;8.646;2023-02-18T11:03:15;2.00;;;2.00;;
20844;SDS011;10583;49.084;8.646;2023-02-18T11:05:44;2.10;;;2.10;;
20844;SDS011;10583;49.084;8.646;2023-02-18T11:08:15;2.20;;;2.20;;
20844;SDS011;10583;49.084;8.646;2023-02-18T11:10:45;1.97;;;1.97;;
20844;SDS011;10583;49.084;8.646;2023-02-18T11:13:14;2.40;;;2.40;;
20844;SDS011;10583;49.084;8.646;2023-02-18T11:15:56;2.10;;;2.10;;
20844;SDS011;10583;49.084;8.646;2023-02-18T11:18:27;2.50;;;2.50;;
20844;SDS011;10583;49.084;8.646;2023-02-18T11:21:03;2.33;;;2.33;;
20844;SDS011;10583;49.084;8.646;2023-02-18T11:23:32;2.80;;;2.80;;
20844;SDS011;10583;49.084;8.646;2023-02-18T11:26:12;2.93;;;2.93;;
20844;SDS011;10583;49.084;8.646;2023-02-18T11:28:42;2.60;;;2.60;;
20844;SDS011;10583;49.084;8.646;2023-02-18T11:31:10;2.80;;;2.80;;
20844;SDS011;10583;49.084;8.646;2023-02-18T11:33:47;2.90;;;2.90;;
20844;SDS011;10583;49.084;8.646;2023-02-18T11:36:17;2.97;;;2.97;;
20844;SDS011;10583;49.084;8.646;2023-02-18T11:38:51;2.70;;;2.70;;
20844;SDS011;10583;49.084;8.646;2023-02-18T11:41:20;3.80;;;3.80;;
20844;SDS011;10583;49.084;8.646;2023-02-18T11:43:55;3.27;;;3.27;;
20844;SDS011;10583;49.084;8.646;2023-02-18T11:46:23;6.97;;;6.97;;
20844;SDS011;10583;49.084;8.646;2023-02-18T11:48:52;15.40;;;15.30;;
20844;SDS011;10583;49.084;8.646;2023-02-18T11:51:21;9.03;;;9.03;;
20844;SDS011;10583;49.084;8.646;2023-02-18T11:53:56;3.63;;;3.63;;
20844;SDS011;10583;49.084;8.646;2023-02-18T11:56:26;3.40;;;3.40;;
20844;SDS011;10583;49.084;8.646;2023-02-18T11:58:54;3.70;;;3.70;;
20844;SDS011;10583;49.084;8.646;2023-02-18T12:01:34;3.73;;;3.73;;
20844;SDS011;10583;49.084;8.646;2023-02-18T12:04:07;3.40;;;3.40;;
20844;SDS011;10583;49.084;8.646;2023-02-18T12:06:40;2.63;;;2.63;;
20844;SDS011;10583;49.084;8.646;2023-02-18T12:09:16;3.17;;;3.17;;
20844;SDS011;10583;49.084;8.646;2023-02-18T12:11:48;3.30;;;3.30;;
20844;SDS011;10583;49.084;8.646;2023-02-18T12:14:18;2.93;;;2.93;;
20844;SDS011;10583;49.084;8.646;2023-02-18T12:16:56;2.70;;;2.70;;
20844;SDS011;10583;49.084;8.646;2023-02-18T12:19:46;2.60;;;2.60;;
20844;SDS011;10583;49.084;8.646;2023-02-18T12:22:23;2.83;;;2.83;;
20844;SDS011;10583;49.084;8.646;2023-02-18T12:25:06;3.17;;;3.17;;
20844;SDS011;10583;49.084;8.646;2023-02-18T12:27:47;3.17;;;3.17;;
20844;SDS011;10583;49.084;8.646;2023-02-18T12:33:14;2.80;;;2.80;;
20844;SDS011;10583;49.084;8.646;2023-02-18T12:35:52;3.10;;;3.10;;
20844;SDS011;10583;49.084;8.646;2023-02-18T12:38:32;3.10;;;3.10;;
20844;SDS011;10583;49.084;8.646;2023-02-18T12:41:20;3.10;;;3.10;;
20844;SDS011;10583;49.084;8.646;2023-02-18T12:43:55;2.83;;;2.83;;
20844;SDS011;10583;49.084;8.646;2023-02-18T12:46:37;2.80;;;2.80;;
20844;SDS011;10583;49.084;8.646;2023-02-18T12:49:22;2.70;;;2.70;;
20844;SDS011;10583;49.084;8.646;2023-02-18T12:52:02;2.60;;;2.60;;
20844;SDS011;10583;49.084;8.646;2023-02-18T12:54:54;2.60;;;2.60;;
20844;SDS011;10583;49.084;8.646;2023-02-18T12:57:39;2.70;;;2.70;;
20844;SDS011;10583;49.084;8.646;2023-02-18T13:00:29;2.63;;;2.63;;
20844;SDS011;10583;49.084;8.646;2023-02-18T13:06:17;3.00;;;3.00;;
20844;SDS011;10583;49.084;8.646;2023-02-18T13:08:57;2.60;;;2.60;;
20844;SDS011;10583;49.084;8.646;2023-02-18T13:11:35;2.57;;;2.57;;
20844;SDS011;10583;49.084;8.646;2023-02-18T13:14:11;2.33;;;2.33;;
20844;SDS011;10583;49.084;8.646;2023-02-18T13:16:42;2.60;;;2.60;;
20844;SDS011;10583;49.084;8.646;2023-02-18T13:19:13;2.23;;;2.23;;
20844;SDS011;10583;49.084;8.646;2023-02-18T13:21:44;2.50;;;2.50;;
20844;SDS011;10583;49.084;8.646;2023-02-18T13:24:15;2.73;;;2.73;;
20844;SDS011;10583;49.084;8.646;2023-02-18T13:26:48;2.27;;;2.27;;
20844;SDS011;10583;49.084;8.646;2023-02-18T13:29:23;2.27;;;2.27;;
20844;SDS011;10583;49.084;8.646;2023-02-18T13:31:56;2.43;;;2.43;;
20844;SDS011;10583;49.084;8.646;2023-02-18T13:34:33;2.20;;;2.20;;
20844;SDS011;10583;49.084;8.646;2023-02-18T13:37:09;2.10;;;2.10;;
20844;SDS011;10583;49.084;8.646;2023-02-18T13:39:44;1.70;;;1.70;;
20844;SDS011;10583;49.084;8.646;2023-02-18T13:42:25;1.90;;;1.90;;
20844;SDS011;10583;49.084;8.646;2023-02-18T13:45:21;1.50;;;1.50;;
20844;SDS011;10583;49.084;8.646;2023-02-18T13:47:53;1.70;;;1.70;;
20844;SDS011;10583;49.084;8.646;2023-02-18T13:50:22;1.37;;;1.37;;
20844;SDS011;10583;49.084;8.646;2023-02-18T13:52:56;1.60;;;1.60;;
20844;SDS011;10583;49.084;8.646;2023-02-18T13:55:38;1.50;;;1.50;;
20844;SDS011;10583;49.084;8.646;2023-02-18T13:58:10;1.83;;;1.83;;
20844;SDS011;10583;49.084;8.646;2023-02-18T14:00:44;1.83;;;1.83;;
20844;SDS011;10583;49.084;8.646;2023-02-18T14:03:19;1.60;;;1.60;;
20844;SDS011;10583;49.084;8.646;2023-02-18T14:05:57;1.50;;;1.50;;
20844;SDS011;10583;49.084;8.646;2023-02-18T14:08:31;1.23;;;1.23;;
20844;SDS011;10583;49.084;8.646;2023-02-18T14:19:54;1.43;;;1.43;;
20844;SDS011;10583;49.084;8.646;2023-02-18T14:22:23;1.50;;;1.50;;
20844;SDS011;10583;49.084;8.646;2023-02-18T14:24:54;1.50;;;1.50;;
20844;SDS011;10583;49.084;8.646;2023-02-18T14:27:22;3.03;;;3.03;;
20844;SDS011;10583;49.084;8.646;2023-02-18T14:29:49;1.43;;;1.43;;
20844;SDS011;10583;49.084;8.646;2023-02-18T14:32:17;1.57;;;1.57;;
20844;SDS011;10583;49.084;8.646;2023-02-18T14:34:52;1.60;;;1.60;;
20844;SDS011;10583;49.084;8.646;2023-02-18T14:37:37;2.00;;;2.00;;
20844;SDS011;10583;49.084;8.646;2023-02-18T14:40:18;1.93;;;1.93;;
20844;SDS011;10583;49.084;8.646;2023-02-18T14:43:11;2.00;;;2.00;;
20844;SDS011;10583;49.084;8.646;2023-02-18T14:45:57;1.63;;;1.63;;
20844;SDS011;10583;49.084;8.646;2023-02-18T14:48:40;1.70;;;1.70;;
20844;SDS011;10583;49.084;8.646;2023-02-18T14:51:15;1.77;;;1.77;;
20844;SDS011;10583;49.084;8.646;2023-02-18T14:53:44;2.20;;;2.20;;
20844;SDS011;10583;49.084;8.646;2023-02-18T14:56:13;2.10;;;2.10;;
20844;SDS011;10583;49.084;8.646;2023-02-18T14:58:43;1.60;;;1.60;;
20844;SDS011;10583;49.084;8.646;2023-02-18T15:01:16;1.70;;;1.70;;
20844;SDS011;10583;49.084;8.646;2023-02-18T15:03:45;1.57;;;1.57;;
20844;SDS011;10583;49.084;8.646;2023-02-18T15:06:29;1.70;;;1.70;;
20844;SDS011;10583;49.084;8.646;2023-02-18T15:08:58;1.50;;;1.50;;
20844;SDS011;10583;49.084;8.646;2023-02-18T15:11:30;1.50;;;1.50;;
20844;SDS011;10583;49.084;8.646;2023-02-18T15:14:02;1.47;;;1.47;;
20844;SDS011;10583;49.084;8.646;2023-02-18T15:16:34;1.50;;;1.50;;
20844;SDS011;10583;49.084;8.646;2023-02-18T15:19:01;1.40;;;1.40;;
20844;SDS011;10583;49.084;8.646;2023-02-18T15:21:31;1.20;;;1.20;;
20844;SDS011;10583;49.084;8.646;2023-02-18T15:24:03;1.00;;;1.00;;
20844;SDS011;10583;49.084;8.646;2023-02-18T15:26:33;1.20;;;1.20;;